Metar z połowy godziny Komunikat METAR ze strony awiacja.imgw.pl Metar G30 EPLB METAR EPLB 190930Z 30005KT 5000 BR NSC 14/11 Q1020 =